Eureka, NV

5:36 AM PDT on October 21, 2014 (GMT -0700)
RAWS COMBS CANYON NV US | Change Station
CLOSE
Current Station
Personal Weather Station
Location: Eureka, NV
Elevation: 6589 ft
Nearby Weather Stations

Elev 6589 ft 39.39 °N, 116.18 °W | Updated 57 minutes ago

Partly Cloudy
Partly Cloudy
46 °F
Feels Like 42 °F
N
8
Wind Variable Wind from NNW
Gusts 21.0 mph

Today
High -- | Low -- °F
--% Chance of Precip.
Yesterday
High -- | Low -- °F
Precip. -- in
7:00 AM 5:56 PM
Waning Crescent, 6% visible
Pressure 29.75 in
Visibility 10.0 miles
Clouds Clear
Windchill 42 °F
Dew Point 22 °F
Humidity 38%
Rainfall 0.00 in
Snow Depth 0 in
UV 0 out of 12
Pollen 2.40 out of 12
Air Quality Not available.
Flu Activity No Activity
METAR KELY 211153Z AUTO 18010KT 10SM CLR 11/01 A2999 RMK AO2 SLP073 T01110006 10144 20100 51011

More Conditions Fewer Conditions

Pressure 29.75 in
Visibility 10.0 miles
Clouds Clear
Windchill 42 °F
Dew Point 22 °F
Humidity 38%
Rainfall 0.00 in
Snow Depth 0 in
UV 0 out of 12
Pollen 2.40 out of 12
Air Quality Not available.
Flu Activity No Activity
METAR KELY 211153Z AUTO 18010KT 10SM CLR 11/01 A2999 RMK AO2 SLP073 T01110006 10144 20100 51011

More Conditions Fewer Conditions

10-Day Weather Forecast

Almanac

Astronomy

Oct. 21, 2014 Rise Set
Actual Time 7:00 AM PDT 5:56 PM PDT
Civil Twilight 6:32 AM PDT 6:23 PM PDT
Nautical Twilight 6:01 AM PDT 6:54 PM PDT
Astronomical Twilight 5:30 AM PDT 7:25 PM PDT
Moon 4:49 AM PDT 4:52 PM PDT
Length of Visible Light 11h 50m
Length of Day
10h 55m
Tomorrow will be 2m 25s shorter.
Waning Crescent, 6% of the Moon is Illuminated
Today
Waning Crescent
Oct 23
New
Oct 30
First Quarter
Nov 6
Full
Nov 14
Last Quarter

Today's Extremes

State Highs State Lows

Community

WunderPhotos

Upload Photos

1,763,647 photos uploaded!

Nearby

Snow Depth

Station Depth Elevation
Diamond Peak 0 in 8000 ft
Corral Canyon 0 in 8500 ft
Big Creek Summit 1 in 8700 ft
Green Mountain 1 in 8000 ft
Ward Mountain 0 in 9200 ft

Earthquake Activity

City Distance Mag. Time & Date
No recent earthquake activity has been reported nearby.
Minimum magnitude displayed is 2.5.

Coastal Water Temperatures

Place Temperature
No Stations Reporting

Nearby Weather Stations